Terminal Aerodrome Forecast
Issued by NWS

Home | Current Version | Previous Version | Text Only | Print | Product List | Glossary On
Versions: 1 2 3 4 5 6 7 8 9 10 11 12 13 14 15
000
FTUS45 KTWC 241737
TAFOLS
TAF
KOLS 241737Z 2418/2518 22006KT P6SM FEW030 SCT060
     FM242100 24012G18KT P6SM SCT050 BKN100
     FM250100 27009KT P6SM FEW060 SCT090
     FM250500 VRB03KT P6SM FEW070=

USA.gov is the U.S. government's official web portal to all federal, state and local government web resources and services.